Okolona, Kentucky
Current Conditions -  °F | °C
As of 12:56 AM on Saturday 01 Nov 2014 (Local Time) from KSDF Reporting Station
Light Snow Light Snow  
Wind Chill: 26°   Ceiling: 1700
Heat Index: 37°   Visibility: 10mi
Dew Point: 33°   Wind: 21mph
Humidity: 86%   Direction: 350°N
Pressure: 30.09"   Gusts: 29mph
Location:  38.14°N, 85.69°W
Report Text: KSDF 010456Z 35018G25KT 10SM -RASN SCT011 BKN017 OVC022 03/01 A3009 RMK AO2 PK WND 35027/0408 SLP190 P0001 T00280006 401110022 $
Loading
Personal Weather Stations






























Interactive Weather Map
Tropical Storm Tracking
New forecast layout! Learn more

10-Day Weather Forecast

Advertisements
Track Severe Weather on mobile